sensor_id;sensor_type;location;lat;lon;timestamp;P1;durP1;ratioP1;P2;durP2;ratioP2
35488;SDS011;21602;55.670;37.578;2023-05-19T00:00:27;4.45;;;2.78;;
35488;SDS011;21602;55.670;37.578;2023-05-19T00:02:54;3.30;;;3.00;;
35488;SDS011;21602;55.670;37.578;2023-05-19T00:05:21;3.60;;;2.97;;
35488;SDS011;21602;55.670;37.578;2023-05-19T00:07:49;4.45;;;2.67;;
35488;SDS011;21602;55.670;37.578;2023-05-19T00:10:17;5.30;;;3.20;;
35488;SDS011;21602;55.670;37.578;2023-05-19T00:12:43;3.95;;;2.95;;
35488;SDS011;21602;55.670;37.578;2023-05-19T00:15:09;3.50;;;2.83;;
35488;SDS011;21602;55.670;37.578;2023-05-19T00:17:35;2.65;;;2.45;;
35488;SDS011;21602;55.670;37.578;2023-05-19T00:20:02;3.25;;;2.42;;
35488;SDS011;21602;55.670;37.578;2023-05-19T00:22:32;5.10;;;2.72;;
35488;SDS011;21602;55.670;37.578;2023-05-19T00:24:58;3.72;;;2.70;;
35488;SDS011;21602;55.670;37.578;2023-05-19T00:27:24;2.75;;;2.55;;
35488;SDS011;21602;55.670;37.578;2023-05-19T00:29:50;3.83;;;2.90;;
35488;SDS011;21602;55.670;37.578;2023-05-19T00:32:17;3.90;;;2.45;;
35488;SDS011;21602;55.670;37.578;2023-05-19T00:34:43;2.45;;;2.25;;
35488;SDS011;21602;55.670;37.578;2023-05-19T00:37:09;2.70;;;2.50;;
35488;SDS011;21602;55.670;37.578;2023-05-19T00:39:35;6.00;;;2.58;;
35488;SDS011;21602;55.670;37.578;2023-05-19T00:42:00;3.55;;;1.90;;
35488;SDS011;21602;55.670;37.578;2023-05-19T00:44:27;5.05;;;1.70;;
35488;SDS011;21602;55.670;37.578;2023-05-19T00:46:53;1.40;;;1.27;;
35488;SDS011;21602;55.670;37.578;2023-05-19T00:49:19;3.05;;;1.92;;
35488;SDS011;21602;55.670;37.578;2023-05-19T00:51:44;3.25;;;1.80;;
35488;SDS011;21602;55.670;37.578;2023-05-19T00:54:11;3.22;;;2.03;;
35488;SDS011;21602;55.670;37.578;2023-05-19T00:56:36;2.17;;;1.70;;
35488;SDS011;21602;55.670;37.578;2023-05-19T00:59:03;3.40;;;1.60;;
35488;SDS011;21602;55.670;37.578;2023-05-19T01:01:29;1.73;;;1.33;;
35488;SDS011;21602;55.670;37.578;2023-05-19T01:03:56;1.60;;;1.30;;
35488;SDS011;21602;55.670;37.578;2023-05-19T01:06:23;2.80;;;1.77;;
35488;SDS011;21602;55.670;37.578;2023-05-19T01:08:50;4.90;;;1.70;;
35488;SDS011;21602;55.670;37.578;2023-05-19T01:11:19;2.03;;;1.40;;
35488;SDS011;21602;55.670;37.578;2023-05-19T01:13:45;1.52;;;1.42;;
35488;SDS011;21602;55.670;37.578;2023-05-19T01:16:23;2.55;;;0.93;;
35488;SDS011;21602;55.670;37.578;2023-05-19T01:19:00;1.27;;;1.10;;
35488;SDS011;21602;55.670;37.578;2023-05-19T01:30:26;1.10;;;1.00;;
35488;SDS011;21602;55.670;37.578;2023-05-19T01:33:02;1.40;;;1.30;;
35488;SDS011;21602;55.670;37.578;2023-05-19T01:35:31;4.85;;;1.70;;
35488;SDS011;21602;55.670;37.578;2023-05-19T01:38:00;4.20;;;1.58;;
35488;SDS011;21602;55.670;37.578;2023-05-19T01:40:28;1.95;;;1.75;;
35488;SDS011;21602;55.670;37.578;2023-05-19T01:42:56;2.22;;;1.58;;
35488;SDS011;21602;55.670;37.578;2023-05-19T01:45:25;1.60;;;1.45;;
35488;SDS011;21602;55.670;37.578;2023-05-19T01:50:20;3.38;;;1.30;;
35488;SDS011;21602;55.670;37.578;2023-05-19T01:52:48;3.65;;;1.02;;
35488;SDS011;21602;55.670;37.578;2023-05-19T01:55:14;3.42;;;1.35;;
35488;SDS011;21602;55.670;37.578;2023-05-19T02:08:27;4.30;;;1.27;;
35488;SDS011;21602;55.670;37.578;2023-05-19T02:11:02;2.70;;;1.52;;
35488;SDS011;21602;55.670;37.578;2023-05-19T02:13:36;5.25;;;1.80;;
35488;SDS011;21602;55.670;37.578;2023-05-19T02:16:06;2.45;;;1.80;;
35488;SDS011;21602;55.670;37.578;2023-05-19T02:18:34;6.03;;;2.60;;
35488;SDS011;21602;55.670;37.578;2023-05-19T02:21:00;2.67;;;1.90;;
35488;SDS011;21602;55.670;37.578;2023-05-19T02:23:26;2.70;;;1.75;;
35488;SDS011;21602;55.670;37.578;2023-05-19T02:25:52;2.88;;;1.73;;
35488;SDS011;21602;55.670;37.578;2023-05-19T02:28:18;4.15;;;2.38;;
35488;SDS011;21602;55.670;37.578;2023-05-19T02:30:44;5.85;;;2.97;;
35488;SDS011;21602;55.670;37.578;2023-05-19T02:33:09;4.22;;;2.58;;
35488;SDS011;21602;55.670;37.578;2023-05-19T02:35:36;2.78;;;2.53;;
35488;SDS011;21602;55.670;37.578;2023-05-19T02:38:02;3.38;;;2.35;;
35488;SDS011;21602;55.670;37.578;2023-05-19T02:40:28;3.05;;;2.33;;
35488;SDS011;21602;55.670;37.578;2023-05-19T02:42:54;5.47;;;2.25;;
35488;SDS011;21602;55.670;37.578;2023-05-19T02:45:20;3.90;;;1.98;;
35488;SDS011;21602;55.670;37.578;2023-05-19T02:47:46;5.00;;;2.20;;
35488;SDS011;21602;55.670;37.578;2023-05-19T02:50:12;2.67;;;2.00;;
35488;SDS011;21602;55.670;37.578;2023-05-19T02:52:38;2.47;;;1.88;;
35488;SDS011;21602;55.670;37.578;2023-05-19T02:55:04;2.88;;;2.35;;
35488;SDS011;21602;55.670;37.578;2023-05-19T02:57:31;3.03;;;2.33;;
35488;SDS011;21602;55.670;37.578;2023-05-19T03:02:24;2.63;;;2.08;;
35488;SDS011;21602;55.670;37.578;2023-05-19T03:04:50;4.15;;;1.90;;
35488;SDS011;21602;55.670;37.578;2023-05-19T03:07:17;2.80;;;2.30;;
35488;SDS011;21602;55.670;37.578;2023-05-19T03:09:49;4.80;;;2.35;;
35488;SDS011;21602;55.670;37.578;2023-05-19T03:12:15;4.70;;;1.90;;
35488;SDS011;21602;55.670;37.578;2023-05-19T03:14:41;2.80;;;1.85;;
35488;SDS011;21602;55.670;37.578;2023-05-19T03:17:08;3.58;;;2.05;;
35488;SDS011;21602;55.670;37.578;2023-05-19T03:19:37;3.83;;;1.95;;
35488;SDS011;21602;55.670;37.578;2023-05-19T03:22:03;2.35;;;1.88;;
35488;SDS011;21602;55.670;37.578;2023-05-19T03:24:30;2.33;;;2.13;;
35488;SDS011;21602;55.670;37.578;2023-05-19T03:26:55;3.25;;;1.83;;
35488;SDS011;21602;55.670;37.578;2023-05-19T03:29:21;6.00;;;2.38;;
35488;SDS011;21602;55.670;37.578;2023-05-19T03:31:48;4.90;;;2.33;;
35488;SDS011;21602;55.670;37.578;2023-05-19T03:34:15;4.88;;;2.30;;
35488;SDS011;21602;55.670;37.578;2023-05-19T03:36:41;3.58;;;2.22;;
35488;SDS011;21602;55.670;37.578;2023-05-19T03:39:12;5.45;;;1.98;;
35488;SDS011;21602;55.670;37.578;2023-05-19T03:41:38;2.90;;;2.20;;
35488;SDS011;21602;55.670;37.578;2023-05-19T03:44:04;4.70;;;2.25;;
35488;SDS011;21602;55.670;37.578;2023-05-19T03:46:30;2.63;;;2.20;;
35488;SDS011;21602;55.670;37.578;2023-05-19T03:48:59;4.70;;;2.53;;
35488;SDS011;21602;55.670;37.578;2023-05-19T03:51:48;3.60;;;2.72;;
35488;SDS011;21602;55.670;37.578;2023-05-19T03:54:22;3.13;;;2.45;;
35488;SDS011;21602;55.670;37.578;2023-05-19T03:56:50;3.08;;;2.72;;
35488;SDS011;21602;55.670;37.578;2023-05-19T03:59:17;4.60;;;2.70;;
35488;SDS011;21602;55.670;37.578;2023-05-19T04:01:43;3.38;;;2.70;;
35488;SDS011;21602;55.670;37.578;2023-05-19T04:04:10;4.57;;;2.35;;
35488;SDS011;21602;55.670;37.578;2023-05-19T04:06:36;4.40;;;2.75;;
35488;SDS011;21602;55.670;37.578;2023-05-19T04:09:02;4.03;;;2.67;;
35488;SDS011;21602;55.670;37.578;2023-05-19T04:11:35;5.07;;;3.13;;
35488;SDS011;21602;55.670;37.578;2023-05-19T04:14:01;4.13;;;2.47;;
35488;SDS011;21602;55.670;37.578;2023-05-19T04:16:27;5.60;;;3.05;;
35488;SDS011;21602;55.670;37.578;2023-05-19T04:18:53;6.32;;;2.90;;
35488;SDS011;21602;55.670;37.578;2023-05-19T04:21:19;7.72;;;3.35;;
35488;SDS011;21602;55.670;37.578;2023-05-19T04:23:46;7.00;;;3.25;;
35488;SDS011;21602;55.670;37.578;2023-05-19T04:26:13;5.57;;;3.10;;
35488;SDS011;21602;55.670;37.578;2023-05-19T04:28:43;7.97;;;3.00;;
35488;SDS011;21602;55.670;37.578;2023-05-19T04:31:10;4.38;;;2.50;;
35488;SDS011;21602;55.670;37.578;2023-05-19T04:33:37;4.53;;;3.22;;
35488;SDS011;21602;55.670;37.578;2023-05-19T04:36:05;8.15;;;3.25;;
35488;SDS011;21602;55.670;37.578;2023-05-19T04:38:37;5.75;;;3.10;;
35488;SDS011;21602;55.670;37.578;2023-05-19T04:41:07;4.43;;;3.22;;
35488;SDS011;21602;55.670;37.578;2023-05-19T04:43:37;3.72;;;3.20;;
35488;SDS011;21602;55.670;37.578;2023-05-19T04:46:08;6.82;;;3.10;;
35488;SDS011;21602;55.670;37.578;2023-05-19T04:48:36;7.40;;;3.80;;
35488;SDS011;21602;55.670;37.578;2023-05-19T04:51:02;3.63;;;3.33;;
35488;SDS011;21602;55.670;37.578;2023-05-19T04:53:29;4.10;;;3.47;;
35488;SDS011;21602;55.670;37.578;2023-05-19T04:55:56;5.68;;;3.63;;
35488;SDS011;21602;55.670;37.578;2023-05-19T04:58:23;6.80;;;3.83;;
35488;SDS011;21602;55.670;37.578;2023-05-19T05:00:53;5.32;;;4.10;;
35488;SDS011;21602;55.670;37.578;2023-05-19T05:03:25;9.35;;;3.92;;
35488;SDS011;21602;55.670;37.578;2023-05-19T05:05:51;7.68;;;4.22;;
35488;SDS011;21602;55.670;37.578;2023-05-19T05:08:18;12.25;;;5.78;;
35488;SDS011;21602;55.670;37.578;2023-05-19T05:10:49;6.07;;;4.18;;
35488;SDS011;21602;55.670;37.578;2023-05-19T05:15:46;6.53;;;3.45;;
35488;SDS011;21602;55.670;37.578;2023-05-19T05:18:14;7.00;;;4.47;;
35488;SDS011;21602;55.670;37.578;2023-05-19T05:20:41;4.28;;;3.67;;
35488;SDS011;21602;55.670;37.578;2023-05-19T05:23:09;6.20;;;4.47;;
35488;SDS011;21602;55.670;37.578;2023-05-19T05:25:40;7.78;;;4.30;;
35488;SDS011;21602;55.670;37.578;2023-05-19T05:28:10;6.18;;;4.55;;
35488;SDS011;21602;55.670;37.578;2023-05-19T05:30:37;7.85;;;4.50;;
35488;SDS011;21602;55.670;37.578;2023-05-19T05:33:06;10.68;;;5.07;;
35488;SDS011;21602;55.670;37.578;2023-05-19T05:35:36;6.40;;;4.13;;
35488;SDS011;21602;55.670;37.578;2023-05-19T05:38:03;4.78;;;4.28;;
35488;SDS011;21602;55.670;37.578;2023-05-19T05:40:29;7.90;;;4.65;;
35488;SDS011;21602;55.670;37.578;2023-05-19T05:42:56;8.43;;;4.90;;
35488;SDS011;21602;55.670;37.578;2023-05-19T05:45:25;6.63;;;3.92;;
35488;SDS011;21602;55.670;37.578;2023-05-19T05:47:52;8.52;;;4.35;;
35488;SDS011;21602;55.670;37.578;2023-05-19T05:50:18;5.55;;;4.38;;
35488;SDS011;21602;55.670;37.578;2023-05-19T05:52:45;8.70;;;6.00;;
35488;SDS011;21602;55.670;37.578;2023-05-19T05:57:40;7.38;;;4.85;;
35488;SDS011;21602;55.670;37.578;2023-05-19T06:00:08;8.63;;;6.50;;
35488;SDS011;21602;55.670;37.578;2023-05-19T06:02:44;9.95;;;5.15;;
35488;SDS011;21602;55.670;37.578;2023-05-19T06:05:12;8.45;;;5.50;;
35488;SDS011;21602;55.670;37.578;2023-05-19T06:07:40;6.45;;;5.10;;
35488;SDS011;21602;55.670;37.578;2023-05-19T06:10:07;6.60;;;5.50;;
35488;SDS011;21602;55.670;37.578;2023-05-19T06:12:37;9.25;;;5.80;;
35488;SDS011;21602;55.670;37.578;2023-05-19T06:15:08;6.57;;;5.88;;
35488;SDS011;21602;55.670;37.578;2023-05-19T06:17:56;7.53;;;5.97;;
35488;SDS011;21602;55.670;37.578;2023-05-19T06:20:22;7.25;;;5.63;;
35488;SDS011;21602;55.670;37.578;2023-05-19T06:22:48;9.90;;;6.05;;
35488;SDS011;21602;55.670;37.578;2023-05-19T06:25:17;6.90;;;5.97;;
35488;SDS011;21602;55.670;37.578;2023-05-19T06:27:45;15.15;;;7.13;;
35488;SDS011;21602;55.670;37.578;2023-05-19T06:32:50;12.65;;;6.35;;
35488;SDS011;21602;55.670;37.578;2023-05-19T06:35:16;10.20;;;6.13;;
35488;SDS011;21602;55.670;37.578;2023-05-19T06:37:42;11.90;;;6.03;;
35488;SDS011;21602;55.670;37.578;2023-05-19T06:40:09;8.23;;;6.75;;
35488;SDS011;21602;55.670;37.578;2023-05-19T06:42:38;9.65;;;6.47;;
35488;SDS011;21602;55.670;37.578;2023-05-19T06:45:12;10.40;;;6.22;;
35488;SDS011;21602;55.670;37.578;2023-05-19T06:47:39;10.50;;;5.97;;
35488;SDS011;21602;55.670;37.578;2023-05-19T06:50:07;13.03;;;7.17;;
35488;SDS011;21602;55.670;37.578;2023-05-19T06:52:36;8.32;;;5.80;;
35488;SDS011;21602;55.670;37.578;2023-05-19T06:55:01;8.60;;;6.32;;
35488;SDS011;21602;55.670;37.578;2023-05-19T06:57:30;8.80;;;6.38;;
35488;SDS011;21602;55.670;37.578;2023-05-19T06:59:56;7.28;;;5.85;;
35488;SDS011;21602;55.670;37.578;2023-05-19T07:02:22;8.05;;;5.97;;
35488;SDS011;21602;55.670;37.578;2023-05-19T07:04:48;12.10;;;6.38;;
35488;SDS011;21602;55.670;37.578;2023-05-19T07:09:43;10.00;;;7.60;;
35488;SDS011;21602;55.670;37.578;2023-05-19T07:12:09;9.45;;;6.10;;
35488;SDS011;21602;55.670;37.578;2023-05-19T07:14:36;7.83;;;6.40;;
35488;SDS011;21602;55.670;37.578;2023-05-19T07:17:03;7.30;;;6.38;;
35488;SDS011;21602;55.670;37.578;2023-05-19T07:19:32;7.07;;;6.28;;
35488;SDS011;21602;55.670;37.578;2023-05-19T07:21:58;10.50;;;6.70;;
35488;SDS011;21602;55.670;37.578;2023-05-19T07:24:24;11.48;;;6.45;;
35488;SDS011;21602;55.670;37.578;2023-05-19T07:26:52;11.68;;;7.03;;
35488;SDS011;21602;55.670;37.578;2023-05-19T07:29:18;12.15;;;6.65;;
35488;SDS011;21602;55.670;37.578;2023-05-19T07:31:44;9.85;;;6.75;;
35488;SDS011;21602;55.670;37.578;2023-05-19T07:34:10;7.78;;;5.63;;
35488;SDS011;21602;55.670;37.578;2023-05-19T07:36:36;11.02;;;6.97;;
35488;SDS011;21602;55.670;37.578;2023-05-19T07:39:01;15.73;;;7.18;;
35488;SDS011;21602;55.670;37.578;2023-05-19T07:41:27;9.57;;;7.35;;
35488;SDS011;21602;55.670;37.578;2023-05-19T07:43:54;10.43;;;7.05;;
35488;SDS011;21602;55.670;37.578;2023-05-19T07:46:21;10.35;;;7.70;;
35488;SDS011;21602;55.670;37.578;2023-05-19T07:48:48;9.13;;;7.68;;
35488;SDS011;21602;55.670;37.578;2023-05-19T07:51:13;14.88;;;9.43;;
35488;SDS011;21602;55.670;37.578;2023-05-19T07:53:40;8.93;;;7.68;;
35488;SDS011;21602;55.670;37.578;2023-05-19T07:56:06;10.88;;;8.30;;
35488;SDS011;21602;55.670;37.578;2023-05-19T07:58:32;9.15;;;7.97;;
35488;SDS011;21602;55.670;37.578;2023-05-19T08:00:58;16.38;;;8.25;;
35488;SDS011;21602;55.670;37.578;2023-05-19T08:03:25;13.80;;;8.35;;
35488;SDS011;21602;55.670;37.578;2023-05-19T08:05:51;12.82;;;8.18;;
35488;SDS011;21602;55.670;37.578;2023-05-19T08:08:17;11.88;;;7.88;;
35488;SDS011;21602;55.670;37.578;2023-05-19T08:10:44;12.98;;;8.05;;
35488;SDS011;21602;55.670;37.578;2023-05-19T08:13:10;13.18;;;7.63;;
35488;SDS011;21602;55.670;37.578;2023-05-19T08:15:36;12.65;;;7.03;;
35488;SDS011;21602;55.670;37.578;2023-05-19T08:18:04;9.38;;;7.93;;
35488;SDS011;21602;55.670;37.578;2023-05-19T08:20:30;16.63;;;7.85;;
35488;SDS011;21602;55.670;37.578;2023-05-19T08:22:56;15.45;;;7.60;;
35488;SDS011;21602;55.670;37.578;2023-05-19T08:25:22;16.15;;;7.07;;
35488;SDS011;21602;55.670;37.578;2023-05-19T08:27:47;11.68;;;6.57;;
35488;SDS011;21602;55.670;37.578;2023-05-19T08:30:13;10.02;;;6.65;;
35488;SDS011;21602;55.670;37.578;2023-05-19T08:32:40;9.35;;;6.15;;
35488;SDS011;21602;55.670;37.578;2023-05-19T08:35:09;15.35;;;5.80;;
35488;SDS011;21602;55.670;37.578;2023-05-19T08:37:38;11.02;;;5.72;;
35488;SDS011;21602;55.670;37.578;2023-05-19T08:40:04;9.57;;;5.55;;
35488;SDS011;21602;55.670;37.578;2023-05-19T08:42:31;5.35;;;4.47;;
35488;SDS011;21602;55.670;37.578;2023-05-19T08:44:58;6.95;;;4.65;;
35488;SDS011;21602;55.670;37.578;2023-05-19T08:47:26;16.63;;;5.00;;
35488;SDS011;21602;55.670;37.578;2023-05-19T08:50:03;11.50;;;5.13;;
35488;SDS011;21602;55.670;37.578;2023-05-19T08:57:55;8.23;;;5.03;;
35488;SDS011;21602;55.670;37.578;2023-05-19T09:00:24;10.35;;;5.18;;
35488;SDS011;21602;55.670;37.578;2023-05-19T09:02:53;13.13;;;5.25;;
35488;SDS011;21602;55.670;37.578;2023-05-19T09:07:45;12.43;;;3.72;;
35488;SDS011;21602;55.670;37.578;2023-05-19T09:10:14;7.90;;;4.45;;
35488;SDS011;21602;55.670;37.578;2023-05-19T09:12:45;9.73;;;4.35;;
35488;SDS011;21602;55.670;37.578;2023-05-19T09:15:13;7.57;;;3.63;;
35488;SDS011;21602;55.670;37.578;2023-05-19T09:17:44;9.98;;;4.35;;
35488;SDS011;21602;55.670;37.578;2023-05-19T09:20:13;9.32;;;4.78;;
35488;SDS011;21602;55.670;37.578;2023-05-19T09:22:44;19.13;;;4.45;;
35488;SDS011;21602;55.670;37.578;2023-05-19T09:25:16;7.95;;;3.47;;
35488;SDS011;21602;55.670;37.578;2023-05-19T09:27:48;14.95;;;7.18;;
35488;SDS011;21602;55.670;37.578;2023-05-19T09:30:16;4.70;;;3.15;;
35488;SDS011;21602;55.670;37.578;2023-05-19T09:32:43;17.05;;;3.50;;
35488;SDS011;21602;55.670;37.578;2023-05-19T09:35:10;6.97;;;3.17;;
35488;SDS011;21602;55.670;37.578;2023-05-19T09:37:41;7.28;;;3.28;;
35488;SDS011;21602;55.670;37.578;2023-05-19T09:40:08;8.40;;;3.22;;
35488;SDS011;21602;55.670;37.578;2023-05-19T09:42:38;11.35;;;4.82;;
35488;SDS011;21602;55.670;37.578;2023-05-19T09:45:06;6.53;;;2.30;;
35488;SDS011;21602;55.670;37.578;2023-05-19T09:47:36;6.22;;;2.80;;
35488;SDS011;21602;55.670;37.578;2023-05-19T09:50:04;10.95;;;3.50;;
35488;SDS011;21602;55.670;37.578;2023-05-19T09:52:36;8.60;;;2.75;;
35488;SDS011;21602;55.670;37.578;2023-05-19T09:55:03;8.93;;;2.40;;
35488;SDS011;21602;55.670;37.578;2023-05-19T09:57:32;7.82;;;2.67;;
35488;SDS011;21602;55.670;37.578;2023-05-19T10:00:05;4.32;;;2.53;;
35488;SDS011;21602;55.670;37.578;2023-05-19T10:02:40;3.75;;;1.90;;
35488;SDS011;21602;55.670;37.578;2023-05-19T10:05:17;8.43;;;3.13;;
35488;SDS011;21602;55.670;37.578;2023-05-19T10:07:45;4.68;;;2.30;;
35488;SDS011;21602;55.670;37.578;2023-05-19T10:10:14;5.50;;;3.00;;
35488;SDS011;21602;55.670;37.578;2023-05-19T10:12:40;6.57;;;2.20;;
35488;SDS011;21602;55.670;37.578;2023-05-19T10:15:10;5.13;;;2.45;;
35488;SDS011;21602;55.670;37.578;2023-05-19T10:17:38;4.38;;;2.03;;
35488;SDS011;21602;55.670;37.578;2023-05-19T10:20:09;9.00;;;5.07;;
35488;SDS011;21602;55.670;37.578;2023-05-19T10:22:40;5.63;;;2.75;;
35488;SDS011;21602;55.670;37.578;2023-05-19T10:25:07;3.28;;;2.25;;
35488;SDS011;21602;55.670;37.578;2023-05-19T10:27:37;4.47;;;2.67;;
35488;SDS011;21602;55.670;37.578;2023-05-19T10:30:32;4.18;;;2.30;;
35488;SDS011;21602;55.670;37.578;2023-05-19T10:33:02;7.38;;;2.67;;
35488;SDS011;21602;55.670;37.578;2023-05-19T10:41:27;4.93;;;2.83;;
35488;SDS011;21602;55.670;37.578;2023-05-19T10:47:08;8.43;;;2.42;;
35488;SDS011;21602;55.670;37.578;2023-05-19T10:49:39;4.30;;;1.63;;
35488;SDS011;21602;55.670;37.578;2023-05-19T10:52:17;4.65;;;2.25;;
35488;SDS011;21602;55.670;37.578;2023-05-19T10:54:50;5.28;;;1.95;;
35488;SDS011;21602;55.670;37.578;2023-05-19T10:59:48;4.43;;;3.35;;
35488;SDS011;21602;55.670;37.578;2023-05-19T11:05:10;5.15;;;1.90;;
35488;SDS011;21602;55.670;37.578;2023-05-19T11:07:43;3.22;;;1.25;;
35488;SDS011;21602;55.670;37.578;2023-05-19T11:10:21;4.70;;;3.33;;
35488;SDS011;21602;55.670;37.578;2023-05-19T11:12:48;2.75;;;1.42;;
35488;SDS011;21602;55.670;37.578;2023-05-19T11:15:15;4.95;;;1.70;;
35488;SDS011;21602;55.670;37.578;2023-05-19T11:17:41;6.05;;;1.30;;
35488;SDS011;21602;55.670;37.578;2023-05-19T11:20:21;3.60;;;1.45;;
35488;SDS011;21602;55.670;37.578;2023-05-19T11:23:04;8.75;;;2.60;;
35488;SDS011;21602;55.670;37.578;2023-05-19T11:25:39;6.05;;;1.52;;
35488;SDS011;21602;55.670;37.578;2023-05-19T11:28:06;3.35;;;1.90;;
35488;SDS011;21602;55.670;37.578;2023-05-19T11:30:34;9.25;;;2.92;;
35488;SDS011;21602;55.670;37.578;2023-05-19T11:33:01;8.20;;;3.05;;
35488;SDS011;21602;55.670;37.578;2023-05-19T11:35:27;6.57;;;1.67;;
35488;SDS011;21602;55.670;37.578;2023-05-19T11:37:54;9.15;;;2.97;;
35488;SDS011;21602;55.670;37.578;2023-05-19T11:40:21;2.80;;;1.70;;
35488;SDS011;21602;55.670;37.578;2023-05-19T11:42:48;3.47;;;1.48;;
35488;SDS011;21602;55.670;37.578;2023-05-19T11:45:14;12.40;;;2.25;;
35488;SDS011;21602;55.670;37.578;2023-05-19T11:47:39;7.03;;;1.38;;
35488;SDS011;21602;55.670;37.578;2023-05-19T11:50:06;11.30;;;1.60;;
35488;SDS011;21602;55.670;37.578;2023-05-19T11:52:33;5.28;;;2.00;;
35488;SDS011;21602;55.670;37.578;2023-05-19T11:54:59;2.10;;;1.40;;
35488;SDS011;21602;55.670;37.578;2023-05-19T11:57:26;4.75;;;1.60;;
35488;SDS011;21602;55.670;37.578;2023-05-19T11:59:53;7.63;;;1.70;;
35488;SDS011;21602;55.670;37.578;2023-05-19T12:02:24;4.30;;;1.30;;
35488;SDS011;21602;55.670;37.578;2023-05-19T12:04:50;4.75;;;1.75;;
35488;SDS011;21602;55.670;37.578;2023-05-19T12:07:17;5.22;;;1.80;;
35488;SDS011;21602;55.670;37.578;2023-05-19T12:09:44;4.93;;;1.67;;
35488;SDS011;21602;55.670;37.578;2023-05-19T12:12:12;11.03;;;3.40;;
35488;SDS011;21602;55.670;37.578;2023-05-19T12:14:43;6.95;;;1.50;;
35488;SDS011;21602;55.670;37.578;2023-05-19T12:17:15;6.20;;;2.97;;
35488;SDS011;21602;55.670;37.578;2023-05-19T12:19:42;5.00;;;2.17;;
35488;SDS011;21602;55.670;37.578;2023-05-19T12:22:10;3.25;;;1.30;;
35488;SDS011;21602;55.670;37.578;2023-05-19T12:24:36;5.25;;;2.17;;
35488;SDS011;21602;55.670;37.578;2023-05-19T12:27:10;6.90;;;2.33;;
35488;SDS011;21602;55.670;37.578;2023-05-19T12:29:38;3.90;;;1.48;;
35488;SDS011;21602;55.670;37.578;2023-05-19T12:32:06;12.25;;;1.58;;
35488;SDS011;21602;55.670;37.578;2023-05-19T12:34:34;2.15;;;0.98;;
35488;SDS011;21602;55.670;37.578;2023-05-19T12:37:03;5.28;;;1.67;;
35488;SDS011;21602;55.670;37.578;2023-05-19T12:39:29;7.90;;;1.83;;
35488;SDS011;21602;55.670;37.578;2023-05-19T12:42:02;6.93;;;1.40;;
35488;SDS011;21602;55.670;37.578;2023-05-19T12:44:28;6.68;;;1.38;;
35488;SDS011;21602;55.670;37.578;2023-05-19T12:46:59;17.77;;;1.85;;
35488;SDS011;21602;55.670;37.578;2023-05-19T12:49:35;6.70;;;1.23;;
35488;SDS011;21602;55.670;37.578;2023-05-19T12:52:20;2.25;;;1.00;;
35488;SDS011;21602;55.670;37.578;2023-05-19T12:54:48;6.13;;;1.17;;
35488;SDS011;21602;55.670;37.578;2023-05-19T12:57:15;7.57;;;1.98;;
35488;SDS011;21602;55.670;37.578;2023-05-19T12:59:41;10.18;;;1.40;;
35488;SDS011;21602;55.670;37.578;2023-05-19T13:02:07;1.95;;;1.40;;
35488;SDS011;21602;55.670;37.578;2023-05-19T13:04:33;3.90;;;1.17;;
35488;SDS011;21602;55.670;37.578;2023-05-19T13:07:00;2.65;;;1.05;;
35488;SDS011;21602;55.670;37.578;2023-05-19T13:09:26;3.97;;;0.98;;
35488;SDS011;21602;55.670;37.578;2023-05-19T13:11:53;6.25;;;1.80;;
35488;SDS011;21602;55.670;37.578;2023-05-19T13:14:19;3.67;;;1.23;;
35488;SDS011;21602;55.670;37.578;2023-05-19T13:16:45;4.85;;;1.30;;
35488;SDS011;21602;55.670;37.578;2023-05-19T13:19:20;5.53;;;1.00;;
35488;SDS011;21602;55.670;37.578;2023-05-19T13:21:46;3.80;;;0.98;;
35488;SDS011;21602;55.670;37.578;2023-05-19T13:24:15;2.33;;;1.35;;
35488;SDS011;21602;55.670;37.578;2023-05-19T13:26:41;5.20;;;1.25;;
35488;SDS011;21602;55.670;37.578;2023-05-19T13:29:07;6.28;;;1.63;;
35488;SDS011;21602;55.670;37.578;2023-05-19T13:31:33;9.20;;;1.20;;
35488;SDS011;21602;55.670;37.578;2023-05-19T13:34:01;3.58;;;1.13;;
35488;SDS011;21602;55.670;37.578;2023-05-19T13:36:28;4.68;;;1.20;;
35488;SDS011;21602;55.670;37.578;2023-05-19T13:38:54;4.88;;;1.30;;
35488;SDS011;21602;55.670;37.578;2023-05-19T13:41:23;2.13;;;1.05;;
35488;SDS011;21602;55.670;37.578;2023-05-19T13:43:57;3.95;;;1.17;;
35488;SDS011;21602;55.670;37.578;2023-05-19T13:46:24;4.78;;;1.05;;
35488;SDS011;21602;55.670;37.578;2023-05-19T13:48:50;9.13;;;2.38;;
35488;SDS011;21602;55.670;37.578;2023-05-19T13:51:17;6.85;;;1.52;;
35488;SDS011;21602;55.670;37.578;2023-05-19T13:53:43;8.60;;;2.33;;
35488;SDS011;21602;55.670;37.578;2023-05-19T13:56:13;3.75;;;1.08;;
35488;SDS011;21602;55.670;37.578;2023-05-19T13:58:41;8.65;;;1.52;;
35488;SDS011;21602;55.670;37.578;2023-05-19T14:01:08;4.22;;;1.20;;
35488;SDS011;21602;55.670;37.578;2023-05-19T14:03:34;5.78;;;2.55;;
35488;SDS011;21602;55.670;37.578;2023-05-19T14:06:01;3.33;;;1.50;;
35488;SDS011;21602;55.670;37.578;2023-05-19T14:08:27;4.63;;;0.88;;
35488;SDS011;21602;55.670;37.578;2023-05-19T14:10:53;6.53;;;1.23;;
35488;SDS011;21602;55.670;37.578;2023-05-19T14:13:20;3.22;;;1.48;;
35488;SDS011;21602;55.670;37.578;2023-05-19T14:15:47;2.80;;;0.93;;
35488;SDS011;21602;55.670;37.578;2023-05-19T14:18:13;2.38;;;1.05;;
35488;SDS011;21602;55.670;37.578;2023-05-19T14:20:40;2.15;;;1.25;;
35488;SDS011;21602;55.670;37.578;2023-05-19T14:23:09;5.65;;;1.20;;
35488;SDS011;21602;55.670;37.578;2023-05-19T14:25:35;5.57;;;1.13;;
35488;SDS011;21602;55.670;37.578;2023-05-19T14:28:01;3.08;;;1.25;;
35488;SDS011;21602;55.670;37.578;2023-05-19T14:30:27;3.45;;;1.08;;
35488;SDS011;21602;55.670;37.578;2023-05-19T14:32:53;4.03;;;1.05;;
35488;SDS011;21602;55.670;37.578;2023-05-19T14:35:19;6.28;;;1.10;;
35488;SDS011;21602;55.670;37.578;2023-05-19T14:37:45;3.60;;;0.90;;
35488;SDS011;21602;55.670;37.578;2023-05-19T14:40:11;2.15;;;1.30;;
35488;SDS011;21602;55.670;37.578;2023-05-19T14:42:37;4.32;;;1.35;;
35488;SDS011;21602;55.670;37.578;2023-05-19T14:45:03;6.03;;;1.20;;
35488;SDS011;21602;55.670;37.578;2023-05-19T14:47:32;5.05;;;1.67;;
35488;SDS011;21602;55.670;37.578;2023-05-19T14:50:07;1.70;;;1.10;;
35488;SDS011;21602;55.670;37.578;2023-05-19T14:52:33;4.25;;;1.27;;
35488;SDS011;21602;55.670;37.578;2023-05-19T14:55:01;5.30;;;1.65;;
35488;SDS011;21602;55.670;37.578;2023-05-19T14:57:29;7.55;;;1.40;;
35488;SDS011;21602;55.670;37.578;2023-05-19T14:59:55;6.68;;;1.35;;
35488;SDS011;21602;55.670;37.578;2023-05-19T15:02:21;3.10;;;1.38;;
35488;SDS011;21602;55.670;37.578;2023-05-19T15:04:47;7.13;;;2.08;;
35488;SDS011;21602;55.670;37.578;2023-05-19T15:07:13;4.00;;;1.00;;
35488;SDS011;21602;55.670;37.578;2023-05-19T15:09:39;6.57;;;2.08;;
35488;SDS011;21602;55.670;37.578;2023-05-19T15:12:04;3.28;;;0.73;;
35488;SDS011;21602;55.670;37.578;2023-05-19T15:14:33;5.90;;;1.65;;
35488;SDS011;21602;55.670;37.578;2023-05-19T15:16:59;10.45;;;1.20;;
35488;SDS011;21602;55.670;37.578;2023-05-19T15:19:26;4.63;;;1.40;;
35488;SDS011;21602;55.670;37.578;2023-05-19T15:21:52;6.43;;;1.33;;
35488;SDS011;21602;55.670;37.578;2023-05-19T15:24:18;6.45;;;1.25;;
35488;SDS011;21602;55.670;37.578;2023-05-19T15:26:44;5.07;;;1.08;;
35488;SDS011;21602;55.670;37.578;2023-05-19T15:29:13;5.70;;;2.45;;
35488;SDS011;21602;55.670;37.578;2023-05-19T15:36:07;6.90;;;3.28;;
35488;SDS011;21602;55.670;37.578;2023-05-19T15:42:51;6.32;;;1.55;;